Main page
METAR-TAF:

METAR-TAF

Airports :

N'Djamena International Airport

N'Djamena, Chad

latitude: 12-08N, longitude: 015-02E, elevation: 295 m

Current weather observation

The report was made 49 minutes ago, at 06:00 UTC
Wind 6 kt from the South/Southwest
Temperature 23°C
Humidity 94%
Pressure 1009 hPa
Visibility: 8000 m
Few clouds at a height of 2000 ft
light rain

METAR: FTTJ 130600Z 20006KT 8000 -RA FEW020 23/22 Q1009 NOSIG

Time: 07:49 (06:49 UTC)

Forecast

The report was made 1 hour and 49 minutes ago, at 05:00 UTC
Forecast valid from 13 at 06 UTC to 14 at 12 UTC
Wind 10 kt from the South/Southwest
Visibility: 8000 m
Few clouds at a height of 2600 ft
Probability 30% :
Temporary
from 13 at 14 UTC to 13 at 20 UTC
Visibility: 4000 m
thunderstorm, rain
Probability 40% :
Temporary
from 13 at 20 UTC to 14 at 06 UTC
Visibility: 4000 m
thunderstorm, rain

TAF: FTTJ 130500Z 1306/1412 20010KT 8000 FEW026 PROB30 TEMPO 1314/1320 4000 TSRA PROB40 TEMPO 1320/1406 4000 TSRA

Weather observations and forecasts of more than 4000 airports (METAR and TAF reports).

The available stations are represented by yellow and red dots on the map.

Hover mouse over dot to see the name of the station.

Then click to see weather observations and forecasts.

To change the map : click on the green buttons with a black cross to zoom in, on the green button with a dash to zoom out, or on the green arrows for adjacent maps.


METAR-TAF: